createdAt,value
2023-04-10T00:01:15.472Z,5.60
2023-04-10T00:03:43.645Z,5.40
2023-04-10T00:06:11.985Z,6.10
2023-04-10T00:08:39.913Z,5.60
2023-04-10T00:11:07.909Z,5.50
2023-04-10T00:13:36.352Z,4.90
2023-04-10T00:16:04.792Z,5.70
2023-04-10T00:18:32.673Z,5.60
2023-04-10T00:21:00.924Z,5.90
2023-04-10T00:23:31.982Z,5.90
2023-04-10T00:25:59.899Z,6.00
2023-04-10T00:28:28.158Z,6.30
2023-04-10T00:30:56.181Z,5.80
2023-04-10T00:33:24.084Z,5.80
2023-04-10T00:35:52.505Z,6.10
2023-04-10T00:38:21.527Z,5.50
2023-04-10T00:40:49.449Z,5.60
2023-04-10T00:43:20.464Z,6.40
2023-04-10T00:45:49.958Z,5.90
2023-04-10T00:48:19.441Z,6.30
2023-04-10T00:50:47.692Z,6.20
2023-04-10T00:53:17.492Z,6.70
2023-04-10T00:55:46.132Z,6.30
2023-04-10T00:58:14.765Z,6.50
2023-04-10T01:00:42.737Z,6.40
2023-04-10T01:03:12.796Z,6.80
2023-04-10T01:06:06.372Z,6.90
2023-04-10T01:09:22.263Z,7.80
2023-04-10T01:11:52.955Z,7.00
2023-04-10T01:14:27.930Z,7.30
2023-04-10T01:17:07.522Z,6.80
2023-04-10T01:19:51.392Z,6.80
2023-04-10T01:22:26.681Z,7.30
2023-04-10T01:25:10.899Z,7.50
2023-04-10T01:28:17.789Z,6.70
2023-04-10T01:30:52.475Z,6.70
2023-04-10T01:33:22.822Z,6.10
2023-04-10T01:35:55.849Z,7.00
2023-04-10T01:38:28.685Z,6.80
2023-04-10T01:40:59.884Z,7.60
2023-04-10T01:43:32.958Z,6.70
2023-04-10T01:46:03.345Z,7.60
2023-04-10T01:48:31.489Z,6.90
2023-04-10T01:51:05.179Z,7.40
2023-04-10T01:53:34.223Z,7.10
2023-04-10T01:56:03.317Z,8.10
2023-04-10T01:58:36.961Z,7.90
2023-04-10T02:01:06.666Z,7.00
2023-04-10T02:03:34.878Z,7.70
2023-04-10T02:06:15.836Z,7.20
2023-04-10T02:08:53.090Z,9.80
2023-04-10T02:11:41.618Z,7.60
2023-04-10T02:14:12.228Z,7.70
2023-04-10T02:16:41.936Z,8.10
2023-04-10T02:19:13.047Z,10.00
2023-04-10T02:21:42.281Z,9.30
2023-04-10T02:24:10.554Z,8.40
2023-04-10T02:26:58.828Z,10.30
2023-04-10T02:29:26.886Z,7.40
2023-04-10T02:31:55.503Z,8.90
2023-04-10T02:34:23.652Z,9.60
2023-04-10T02:36:52.297Z,9.50
2023-04-10T02:39:20.647Z,9.40
2023-04-10T02:41:51.667Z,8.80
2023-04-10T02:44:19.903Z,8.80
2023-04-10T02:46:47.984Z,10.30
2023-04-10T02:49:16.176Z,10.30
2023-04-10T02:51:45.661Z,9.10
2023-04-10T02:54:13.621Z,9.80
2023-04-10T02:56:41.892Z,9.90
2023-04-10T02:59:09.924Z,9.10
2023-04-10T03:01:39.761Z,9.70
2023-04-10T03:04:08.448Z,10.30
2023-04-10T03:06:39.635Z,10.20
2023-04-10T03:09:08.104Z,11.90
2023-04-10T03:11:36.194Z,11.00
2023-04-10T03:14:04.992Z,11.00
2023-04-10T03:16:33.168Z,11.50
2023-04-10T03:19:04.750Z,11.10
2023-04-10T03:21:33.031Z,11.40
2023-04-10T03:24:01.279Z,12.30
2023-04-10T03:26:29.607Z,11.20
2023-04-10T03:28:58.572Z,12.80
2023-04-10T03:31:26.541Z,13.00
2023-04-10T03:33:57.106Z,11.50
2023-04-10T03:36:25.743Z,11.20
2023-04-10T03:38:54.964Z,11.00
2023-04-10T03:41:25.627Z,12.30
2023-04-10T03:43:54.362Z,10.60
2023-04-10T03:46:23.206Z,10.20
2023-04-10T03:48:54.288Z,9.80
2023-04-10T03:51:24.805Z,9.70
2023-04-10T03:53:53.637Z,8.50
2023-04-10T03:56:22.834Z,9.10
2023-04-10T03:58:51.332Z,10.70
2023-04-10T04:01:19.875Z,8.50
2023-04-10T04:04:01.445Z,7.30
2023-04-10T04:06:58.763Z,8.90
2023-04-10T04:09:59.073Z,9.80
2023-04-10T04:12:39.226Z,9.60
2023-04-10T04:15:43.011Z,9.40
2023-04-10T04:18:19.913Z,8.40
2023-04-10T04:20:56.654Z,9.20
2023-04-10T04:23:40.079Z,9.00
2023-04-10T04:26:31.792Z,7.10
2023-04-10T04:29:15.884Z,8.90
2023-04-10T04:32:10.517Z,7.50
2023-04-10T04:34:58.748Z,8.70
2023-04-10T04:37:46.318Z,8.50
2023-04-10T04:40:37.563Z,8.80
2023-04-10T04:43:21.371Z,10.90
2023-04-10T04:46:02.526Z,11.80
2023-04-10T04:48:59.927Z,14.20
2023-04-10T04:51:47.645Z,12.50
2023-04-10T04:54:28.691Z,13.30
2023-04-10T04:57:32.126Z,9.50
2023-04-10T05:00:18.796Z,12.00
2023-04-10T05:03:02.053Z,17.00
2023-04-10T05:05:37.862Z,14.00
2023-04-10T05:08:24.253Z,10.70
2023-04-10T05:11:06.871Z,9.40
2023-04-10T05:13:53.374Z,10.80
2023-04-10T05:16:27.667Z,8.70
2023-04-10T05:19:12.000Z,9.10
2023-04-10T05:22:00.501Z,9.40
2023-04-10T05:24:45.053Z,8.20
2023-04-10T05:27:17.942Z,7.80
2023-04-10T05:30:04.999Z,6.70
2023-04-10T05:32:39.079Z,8.60
2023-04-10T05:35:39.526Z,8.20
2023-04-10T05:38:20.890Z,8.30
2023-04-10T05:41:01.355Z,9.20
2023-04-10T05:43:42.056Z,9.60
2023-04-10T05:46:33.266Z,9.80
2023-04-10T05:49:22.804Z,8.40
2023-04-10T05:52:04.810Z,10.30
2023-04-10T05:54:47.271Z,9.20
2023-04-10T05:57:51.666Z,9.20
2023-04-10T06:00:53.784Z,9.90
2023-04-10T06:03:51.378Z,7.90
2023-04-10T06:06:20.988Z,10.40
2023-04-10T06:08:48.972Z,10.20
2023-04-10T06:11:17.053Z,10.00
2023-04-10T06:13:48.616Z,10.60
2023-04-10T06:16:17.122Z,10.60
2023-04-10T06:18:46.612Z,10.00
2023-04-10T06:21:14.961Z,10.30
2023-04-10T06:23:42.866Z,11.00
2023-04-10T06:26:11.171Z,9.90
2023-04-10T06:28:39.741Z,11.10
2023-04-10T06:31:07.888Z,11.90
2023-04-10T06:33:37.394Z,12.50
2023-04-10T06:36:07.570Z,13.20
2023-04-10T06:38:39.988Z,13.90
2023-04-10T06:41:09.036Z,12.20
2023-04-10T06:43:39.105Z,12.40
2023-04-10T06:46:07.432Z,12.90
2023-04-10T06:48:35.757Z,10.20
2023-04-10T06:51:04.258Z,10.50
2023-04-10T06:53:32.293Z,9.70
2023-04-10T06:56:03.099Z,10.80
2023-04-10T06:58:32.133Z,9.30
2023-04-10T07:01:04.542Z,9.70
2023-04-10T07:03:32.938Z,10.10
2023-04-10T07:06:03.309Z,9.70
2023-04-10T07:08:31.830Z,8.60
2023-04-10T07:10:59.969Z,8.70
2023-04-10T07:13:28.174Z,9.50
2023-04-10T07:15:56.430Z,9.40
2023-04-10T07:18:24.404Z,8.50
2023-04-10T07:20:52.492Z,8.80
2023-04-10T07:23:20.613Z,7.90
2023-04-10T07:25:48.632Z,7.80
2023-04-10T07:28:16.583Z,7.50
2023-04-10T07:30:44.956Z,7.40
2023-04-10T07:33:13.362Z,7.70
2023-04-10T07:35:41.705Z,7.60
2023-04-10T07:38:12.354Z,7.90
2023-04-10T07:40:40.648Z,7.60
2023-04-10T07:43:08.726Z,5.30
2023-04-10T07:45:37.005Z,5.40
2023-04-10T07:48:06.430Z,5.40
2023-04-10T07:50:35.922Z,5.20
2023-04-10T07:53:07.987Z,5.30
2023-04-10T07:55:45.569Z,5.10
2023-04-10T07:58:13.706Z,4.70
2023-04-10T08:00:42.064Z,5.00
2023-04-10T08:03:10.124Z,4.70
2023-04-10T08:05:41.307Z,6.10
2023-04-10T08:08:09.306Z,5.50
2023-04-10T08:10:38.800Z,4.60
2023-04-10T08:13:06.956Z,4.70
2023-04-10T08:15:35.029Z,4.40
2023-04-10T08:18:02.980Z,4.60
2023-04-10T08:20:37.064Z,4.90
2023-04-10T08:23:17.284Z,4.50
2023-04-10T08:25:48.275Z,4.20
2023-04-10T08:28:16.226Z,3.50
2023-04-10T08:30:44.188Z,4.00
2023-04-10T08:33:12.482Z,4.00
2023-04-10T08:35:40.530Z,3.50
2023-04-10T08:38:13.904Z,3.90
2023-04-10T08:40:44.940Z,3.90
2023-04-10T08:43:13.065Z,3.20
2023-04-10T08:45:41.855Z,3.70
2023-04-10T08:48:12.106Z,3.40
2023-04-10T08:50:43.723Z,3.10
2023-04-10T08:53:13.944Z,3.40
2023-04-10T08:55:44.208Z,3.20
2023-04-10T08:58:13.808Z,3.40
2023-04-10T09:00:42.128Z,4.00
2023-04-10T09:03:12.139Z,3.80
2023-04-10T09:05:40.264Z,3.10
2023-04-10T09:08:09.522Z,2.30
2023-04-10T09:10:37.507Z,2.90
2023-04-10T09:13:05.573Z,2.50
2023-04-10T09:16:00.493Z,2.40
2023-04-10T09:18:51.650Z,2.00
2023-04-10T09:21:21.476Z,2.30
2023-04-10T09:23:59.599Z,2.40
2023-04-10T09:26:30.786Z,2.20
2023-04-10T09:29:10.616Z,2.50
2023-04-10T09:31:40.419Z,2.10
2023-04-10T09:34:09.538Z,1.90
2023-04-10T09:36:38.398Z,2.40
2023-04-10T09:39:07.566Z,2.60
2023-04-10T09:41:35.636Z,2.50
2023-04-10T09:44:12.041Z,2.40
2023-04-10T09:46:41.033Z,2.20
2023-04-10T09:49:09.521Z,2.70
2023-04-10T09:51:39.974Z,2.20
2023-04-10T09:54:08.680Z,3.00
2023-04-10T09:56:40.476Z,2.80
2023-04-10T09:59:08.801Z,2.00
2023-04-10T10:01:40.144Z,2.30
2023-04-10T10:04:09.474Z,2.40
2023-04-10T10:06:39.267Z,2.60
2023-04-10T10:09:08.101Z,2.70
2023-04-10T10:11:36.921Z,3.20
2023-04-10T10:14:13.561Z,3.10
2023-04-10T10:16:50.104Z,2.50
2023-04-10T10:19:46.471Z,2.10
2023-04-10T10:22:14.824Z,1.80
2023-04-10T10:24:47.716Z,1.40
2023-04-10T10:27:18.281Z,2.60
2023-04-10T10:29:49.248Z,1.80
2023-04-10T10:32:18.673Z,1.70
2023-04-10T10:34:48.182Z,2.20
2023-04-10T10:37:17.935Z,1.90
2023-04-10T10:40:14.740Z,1.90
2023-04-10T10:43:04.084Z,2.40
2023-04-10T10:45:52.756Z,1.90
2023-04-10T10:48:20.824Z,1.40
2023-04-10T10:50:59.140Z,1.70
2023-04-10T10:53:38.988Z,1.00
2023-04-10T10:56:22.943Z,1.40
2023-04-10T10:58:56.632Z,1.10
2023-04-10T11:01:25.243Z,0.90
2023-04-10T11:03:53.596Z,1.20
2023-04-10T11:06:43.613Z,0.80
2023-04-10T11:09:46.137Z,1.20
2023-04-10T11:12:15.103Z,1.30
2023-04-10T11:14:45.169Z,1.10
2023-04-10T11:17:13.182Z,1.50
2023-04-10T11:20:11.034Z,1.10
2023-04-10T11:23:14.014Z,1.80
2023-04-10T11:25:54.859Z,1.30
2023-04-10T11:28:31.981Z,1.40
2023-04-10T11:31:24.132Z,2.10
2023-04-10T11:34:04.412Z,1.50
2023-04-10T11:36:34.925Z,1.40
2023-04-10T11:39:14.347Z,1.50
2023-04-10T11:41:44.937Z,1.70
2023-04-10T11:44:16.413Z,1.40
2023-04-10T11:46:51.155Z,1.50
2023-04-10T11:49:21.895Z,1.70
2023-04-10T11:51:52.988Z,1.70
2023-04-10T11:54:21.287Z,2.00
2023-04-10T11:57:18.998Z,1.60
2023-04-10T11:59:51.291Z,1.60
2023-04-10T12:02:19.460Z,1.10
2023-04-10T12:04:57.807Z,1.10
2023-04-10T12:07:31.247Z,1.10
2023-04-10T12:10:00.104Z,1.10
2023-04-10T12:12:39.175Z,1.00
2023-04-10T12:15:27.408Z,1.20
2023-04-10T12:17:56.596Z,1.20
2023-04-10T12:20:27.932Z,1.40
2023-04-10T12:22:57.506Z,1.20
2023-04-10T12:25:25.816Z,1.20
2023-04-10T12:27:53.775Z,1.40
2023-04-10T12:30:22.652Z,1.40
2023-04-10T12:32:53.795Z,1.10
2023-04-10T12:35:38.976Z,1.10
2023-04-10T12:38:07.584Z,1.20
2023-04-10T12:40:35.754Z,0.90
2023-04-10T12:43:03.857Z,1.20
2023-04-10T12:45:45.503Z,1.00
2023-04-10T12:48:23.448Z,1.00
2023-04-10T12:50:52.565Z,0.70
2023-04-10T12:53:20.914Z,1.00
2023-04-10T12:56:05.290Z,1.10
2023-04-10T12:58:33.701Z,1.10
2023-04-10T13:01:07.436Z,1.20
2023-04-10T13:03:37.672Z,1.10
2023-04-10T13:06:09.980Z,1.00
2023-04-10T13:08:38.065Z,1.20
2023-04-10T13:11:06.877Z,0.90
2023-04-10T13:13:34.968Z,0.90
2023-04-10T13:16:03.331Z,1.10
2023-04-10T13:18:31.655Z,1.60
2023-04-10T13:20:59.977Z,1.20
2023-04-10T13:23:28.120Z,1.40
2023-04-10T13:25:56.972Z,1.00
2023-04-10T13:28:25.832Z,1.20
2023-04-10T13:30:54.070Z,1.30
2023-04-10T13:33:22.292Z,1.30
2023-04-10T13:35:50.349Z,1.00
2023-04-10T13:38:20.761Z,1.00
2023-04-10T13:40:49.406Z,0.80
2023-04-10T13:43:17.431Z,1.30
2023-04-10T13:45:45.676Z,1.20
2023-04-10T13:48:16.604Z,1.30
2023-04-10T13:50:44.782Z,0.90
2023-04-10T13:53:13.008Z,1.10
2023-04-10T13:55:43.817Z,1.20
2023-04-10T13:58:13.607Z,1.40
2023-04-10T14:00:44.807Z,1.10
2023-04-10T14:03:12.937Z,1.60
2023-04-10T14:05:41.220Z,1.00
2023-04-10T14:08:11.830Z,1.30
2023-04-10T14:10:39.947Z,1.10
2023-04-10T14:13:08.170Z,1.10
2023-04-10T14:15:36.439Z,1.30
2023-04-10T14:18:04.432Z,1.60
2023-04-10T14:20:32.769Z,1.40
2023-04-10T14:23:04.938Z,1.00
2023-04-10T14:25:32.919Z,0.90
2023-04-10T14:28:01.267Z,1.70
2023-04-10T14:30:31.052Z,1.10
2023-04-10T14:32:59.254Z,1.10
2023-04-10T14:35:27.515Z,1.00
2023-04-10T14:37:55.728Z,0.80
2023-04-10T14:40:25.656Z,0.90
2023-04-10T14:42:53.693Z,1.30
2023-04-10T14:45:21.863Z,1.00
2023-04-10T14:47:49.772Z,0.90
2023-04-10T14:50:17.950Z,1.80
2023-04-10T14:52:46.407Z,1.50
2023-04-10T14:55:14.281Z,0.80
2023-04-10T14:57:42.321Z,0.90
2023-04-10T15:00:10.915Z,1.10
2023-04-10T15:02:39.154Z,1.20
2023-04-10T15:05:07.790Z,1.40
2023-04-10T15:07:36.045Z,1.40
2023-04-10T15:10:04.387Z,1.60
2023-04-10T15:12:32.458Z,1.50
2023-04-10T15:15:01.002Z,1.30
2023-04-10T15:17:30.222Z,2.00
2023-04-10T15:19:58.301Z,1.00
2023-04-10T15:22:27.149Z,1.40
2023-04-10T15:24:55.339Z,0.80
2023-04-10T15:27:23.580Z,1.00
2023-04-10T15:29:51.701Z,0.70
2023-04-10T15:32:19.682Z,0.90
2023-04-10T15:34:47.814Z,1.10
2023-04-10T15:37:16.356Z,0.80
2023-04-10T15:39:44.218Z,1.00
2023-04-10T15:42:12.370Z,2.00
2023-04-10T15:44:40.648Z,0.90
2023-04-10T15:47:08.534Z,1.30
2023-04-10T15:49:38.399Z,1.00
2023-04-10T15:52:07.254Z,1.20
2023-04-10T15:54:36.635Z,1.70
2023-04-10T15:57:04.830Z,0.90
2023-04-10T15:59:33.293Z,1.20
2023-04-10T16:02:01.305Z,1.00
2023-04-10T16:04:30.843Z,0.70
2023-04-10T16:06:59.124Z,1.30
2023-04-10T16:09:27.493Z,1.50
2023-04-10T16:11:56.424Z,1.90
2023-04-10T16:14:24.978Z,1.80
2023-04-10T16:16:52.951Z,1.00
2023-04-10T16:19:24.495Z,1.20
2023-04-10T16:21:52.629Z,1.30
2023-04-10T16:24:20.585Z,1.00
2023-04-10T16:26:51.328Z,1.30
2023-04-10T16:29:20.645Z,1.30
2023-04-10T16:31:50.108Z,1.30
2023-04-10T16:34:18.196Z,1.30
2023-04-10T16:36:46.293Z,1.30
2023-04-10T16:39:14.312Z,0.90
2023-04-10T16:41:42.437Z,1.00
2023-04-10T16:44:10.930Z,1.40
2023-04-10T16:46:38.982Z,1.50
2023-04-10T16:49:07.103Z,1.10
2023-04-10T16:51:35.554Z,1.10
2023-04-10T16:54:04.031Z,1.20
2023-04-10T16:56:34.378Z,1.00
2023-04-10T16:59:02.620Z,1.30
2023-04-10T17:01:31.592Z,1.40
2023-04-10T17:03:59.920Z,1.30
2023-04-10T17:06:28.335Z,1.90
2023-04-10T17:08:56.355Z,1.40
2023-04-10T17:11:24.671Z,1.70
2023-04-10T17:13:52.930Z,1.70
2023-04-10T17:16:21.010Z,1.40
2023-04-10T17:18:50.297Z,1.80
2023-04-10T17:21:18.464Z,1.60
2023-04-10T17:23:46.483Z,1.80
2023-04-10T17:26:16.831Z,1.80
2023-04-10T17:28:46.515Z,2.60
2023-04-10T17:31:16.457Z,3.60
2023-04-10T17:33:44.781Z,4.50
2023-04-10T17:36:13.498Z,5.80
2023-04-10T17:38:42.564Z,7.80
2023-04-10T17:41:13.861Z,7.70
2023-04-10T17:43:42.212Z,6.90
2023-04-10T17:46:15.156Z,7.50
2023-04-10T17:48:45.125Z,7.80
2023-04-10T17:51:13.171Z,7.70
2023-04-10T17:53:41.509Z,8.90
2023-04-10T17:56:19.862Z,8.60
2023-04-10T17:59:02.671Z,8.50
2023-04-10T18:01:31.343Z,9.60
2023-04-10T18:04:03.373Z,9.30
2023-04-10T18:06:32.805Z,10.50
2023-04-10T18:09:00.909Z,9.10
2023-04-10T18:11:28.965Z,9.80
2023-04-10T18:13:57.358Z,10.20
2023-04-10T18:16:25.988Z,10.30
2023-04-10T18:18:54.245Z,10.50
2023-04-10T18:21:22.883Z,9.20
2023-04-10T18:23:50.901Z,9.20
2023-04-10T18:26:21.055Z,9.10
2023-04-10T18:28:49.543Z,8.30
2023-04-10T18:31:19.219Z,8.40
2023-04-10T18:33:53.343Z,6.80
2023-04-10T18:36:32.500Z,7.30
2023-04-10T18:39:00.569Z,6.70
2023-04-10T18:41:28.555Z,6.60
2023-04-10T18:44:04.178Z,6.90
2023-04-10T18:46:33.559Z,5.90
2023-04-10T18:49:03.616Z,5.30
2023-04-10T18:51:35.448Z,6.10
2023-04-10T18:54:09.144Z,6.00
2023-04-10T18:56:38.381Z,5.40
2023-04-10T18:59:06.535Z,7.10
2023-04-10T19:01:35.777Z,5.70
2023-04-10T19:04:04.075Z,5.30
2023-04-10T19:06:33.202Z,5.50
2023-04-10T19:09:02.579Z,5.60
2023-04-10T19:11:30.722Z,5.70
2023-04-10T19:14:01.269Z,8.10
2023-04-10T19:16:29.570Z,11.30
2023-04-10T19:18:57.630Z,11.40
2023-04-10T19:21:26.108Z,12.50
2023-04-10T19:23:55.190Z,13.70
2023-04-10T19:26:23.255Z,15.10
2023-04-10T19:28:51.565Z,17.50
2023-04-10T19:31:21.260Z,18.40
2023-04-10T19:33:49.531Z,21.00
2023-04-10T19:36:19.761Z,22.80
2023-04-10T19:38:51.280Z,24.00
2023-04-10T19:41:19.646Z,23.20
2023-04-10T19:43:48.057Z,21.90
2023-04-10T19:46:20.928Z,20.00
2023-04-10T19:48:49.317Z,18.00
2023-04-10T19:51:19.043Z,18.40
2023-04-10T19:53:47.305Z,19.10
2023-04-10T19:56:17.649Z,18.30
2023-04-10T19:58:47.409Z,19.10
2023-04-10T20:01:16.923Z,19.90
2023-04-10T20:03:45.171Z,18.10
2023-04-10T20:06:13.910Z,19.60
2023-04-10T20:08:42.749Z,19.50
2023-04-10T20:11:11.160Z,20.70
2023-04-10T20:13:41.053Z,19.40
2023-04-10T20:16:11.866Z,19.90
2023-04-10T20:18:40.498Z,22.40
2023-04-10T20:21:09.306Z,20.40
2023-04-10T20:23:37.918Z,20.60
2023-04-10T20:26:06.534Z,20.60
2023-04-10T20:28:34.500Z,20.50
2023-04-10T20:31:02.741Z,21.10
2023-04-10T20:33:31.464Z,20.30
2023-04-10T20:35:59.879Z,20.20
2023-04-10T20:38:28.407Z,21.50
2023-04-10T20:40:56.986Z,21.90
2023-04-10T20:43:26.647Z,20.50
2023-04-10T20:45:54.907Z,19.60
2023-04-10T20:48:22.956Z,20.10
2023-04-10T20:50:52.372Z,20.70
2023-04-10T20:53:20.545Z,20.80
2023-04-10T20:55:52.425Z,21.50
2023-04-10T20:58:20.752Z,20.20
2023-04-10T21:00:53.181Z,19.90
2023-04-10T21:03:21.414Z,21.30
2023-04-10T21:05:51.402Z,21.30
2023-04-10T21:08:21.134Z,20.70
2023-04-10T21:10:49.853Z,21.50
2023-04-10T21:13:17.701Z,20.00
2023-04-10T21:15:48.763Z,22.20
2023-04-10T21:18:17.322Z,21.10
2023-04-10T21:20:45.326Z,20.80
2023-04-10T21:23:13.536Z,20.60
2023-04-10T21:25:41.635Z,20.00
2023-04-10T21:28:09.604Z,21.30
2023-04-10T21:30:37.880Z,21.60
2023-04-10T21:33:05.745Z,20.40
2023-04-10T21:35:33.913Z,21.20
2023-04-10T21:38:02.459Z,21.00
2023-04-10T21:40:34.651Z,22.90
2023-04-10T21:43:05.084Z,22.00
2023-04-10T21:45:37.398Z,23.00
2023-04-10T21:48:05.858Z,22.60
2023-04-10T21:50:33.989Z,23.10
2023-04-10T21:53:02.297Z,22.00
2023-04-10T21:55:30.721Z,20.90
2023-04-10T21:57:58.800Z,21.10
2023-04-10T22:00:26.714Z,23.30
2023-04-10T22:02:57.561Z,23.60
2023-04-10T22:05:26.051Z,24.10
2023-04-10T22:07:53.905Z,22.40
2023-04-10T22:10:22.242Z,24.00
2023-04-10T22:12:50.312Z,20.90
2023-04-10T22:15:19.316Z,22.20
2023-04-10T22:17:48.685Z,21.20
2023-04-10T22:20:16.790Z,20.80
2023-04-10T22:22:46.232Z,21.00
2023-04-10T22:25:14.616Z,21.20
2023-04-10T22:27:42.705Z,21.40
2023-04-10T22:30:11.121Z,22.10
2023-04-10T22:32:39.411Z,20.60
2023-04-10T22:35:08.416Z,20.80
2023-04-10T22:37:36.344Z,21.50
2023-04-10T22:40:05.293Z,19.70
2023-04-10T22:42:33.395Z,19.50
2023-04-10T22:45:01.271Z,19.60
2023-04-10T22:47:30.501Z,19.50
2023-04-10T22:49:58.478Z,18.90
2023-04-10T22:52:26.387Z,17.80
2023-04-10T22:54:54.702Z,17.60
2023-04-10T22:57:22.725Z,16.80
2023-04-10T22:59:50.991Z,18.00
2023-04-10T23:02:19.375Z,17.10
2023-04-10T23:04:47.668Z,15.10
2023-04-10T23:07:15.829Z,14.90
2023-04-10T23:09:43.923Z,14.30
2023-04-10T23:12:11.969Z,15.50
2023-04-10T23:14:39.856Z,16.10
2023-04-10T23:17:08.098Z,15.60
2023-04-10T23:19:36.165Z,14.10
2023-04-10T23:22:07.245Z,13.70
2023-04-10T23:24:35.583Z,12.90
2023-04-10T23:27:07.207Z,12.70
2023-04-10T23:29:35.177Z,13.20
2023-04-10T23:32:03.452Z,12.50
2023-04-10T23:34:31.472Z,13.20
2023-04-10T23:36:59.431Z,12.70
2023-04-10T23:39:27.538Z,12.60
2023-04-10T23:41:57.066Z,12.00
2023-04-10T23:44:25.026Z,13.00
2023-04-10T23:46:53.300Z,12.20
2023-04-10T23:49:23.378Z,12.30
2023-04-10T23:51:51.324Z,11.30
2023-04-10T23:54:19.448Z,11.60
2023-04-10T23:56:47.674Z,10.80
2023-04-10T23:59:17.425Z,11.90
